sensor_id;sensor_type;location;lat;lon;timestamp;P1;durP1;ratioP1;P2;durP2;ratioP2
74259;SDS011;62630;55.874;37.516;2023-03-24T00:00:07;13.02;;;7.53;;
74259;SDS011;62630;55.874;37.516;2023-03-24T00:02:37;11.73;;;7.45;;
74259;SDS011;62630;55.874;37.516;2023-03-24T00:05:09;10.70;;;7.10;;
74259;SDS011;62630;55.874;37.516;2023-03-24T00:07:36;13.98;;;7.40;;
74259;SDS011;62630;55.874;37.516;2023-03-24T00:10:05;14.45;;;8.55;;
74259;SDS011;62630;55.874;37.516;2023-03-24T00:12:33;13.13;;;7.53;;
74259;SDS011;62630;55.874;37.516;2023-03-24T00:15:05;12.50;;;7.28;;
74259;SDS011;62630;55.874;37.516;2023-03-24T00:17:32;11.90;;;7.75;;
74259;SDS011;62630;55.874;37.516;2023-03-24T00:20:00;13.02;;;7.07;;
74259;SDS011;62630;55.874;37.516;2023-03-24T00:22:31;12.70;;;7.47;;
74259;SDS011;62630;55.874;37.516;2023-03-24T00:24:57;13.25;;;7.80;;
74259;SDS011;62630;55.874;37.516;2023-03-24T00:27:23;12.68;;;7.97;;
74259;SDS011;62630;55.874;37.516;2023-03-24T00:29:48;12.70;;;8.38;;
74259;SDS011;62630;55.874;37.516;2023-03-24T00:32:14;14.48;;;8.48;;
74259;SDS011;62630;55.874;37.516;2023-03-24T00:34:39;12.57;;;7.68;;
74259;SDS011;62630;55.874;37.516;2023-03-24T00:37:07;11.07;;;7.25;;
74259;SDS011;62630;55.874;37.516;2023-03-24T00:39:33;13.13;;;7.75;;
74259;SDS011;62630;55.874;37.516;2023-03-24T00:41:59;12.68;;;7.50;;
74259;SDS011;62630;55.874;37.516;2023-03-24T00:44:25;11.32;;;7.65;;
74259;SDS011;62630;55.874;37.516;2023-03-24T00:46:51;18.73;;;8.15;;
74259;SDS011;62630;55.874;37.516;2023-03-24T00:49:21;11.68;;;7.43;;
74259;SDS011;62630;55.874;37.516;2023-03-24T00:54:36;12.15;;;7.32;;
74259;SDS011;62630;55.874;37.516;2023-03-24T00:57:04;15.45;;;8.60;;
74259;SDS011;62630;55.874;37.516;2023-03-24T00:59:33;14.85;;;8.23;;
74259;SDS011;62630;55.874;37.516;2023-03-24T01:02:06;16.65;;;8.75;;
74259;SDS011;62630;55.874;37.516;2023-03-24T01:04:39;15.43;;;7.97;;
74259;SDS011;62630;55.874;37.516;2023-03-24T01:07:06;13.85;;;8.40;;
74259;SDS011;62630;55.874;37.516;2023-03-24T01:09:34;13.48;;;8.45;;
74259;SDS011;62630;55.874;37.516;2023-03-24T01:12:01;14.75;;;8.20;;
74259;SDS011;62630;55.874;37.516;2023-03-24T01:14:31;13.02;;;8.50;;
74259;SDS011;62630;55.874;37.516;2023-03-24T01:16:57;14.55;;;7.65;;
74259;SDS011;62630;55.874;37.516;2023-03-24T01:19:24;14.00;;;8.50;;
74259;SDS011;62630;55.874;37.516;2023-03-24T01:21:50;14.30;;;8.30;;
74259;SDS011;62630;55.874;37.516;2023-03-24T01:24:18;12.73;;;8.27;;
74259;SDS011;62630;55.874;37.516;2023-03-24T01:26:45;18.20;;;9.10;;
74259;SDS011;62630;55.874;37.516;2023-03-24T01:29:11;15.73;;;8.68;;
74259;SDS011;62630;55.874;37.516;2023-03-24T01:31:36;15.25;;;7.85;;
74259;SDS011;62630;55.874;37.516;2023-03-24T01:34:02;15.05;;;8.65;;
74259;SDS011;62630;55.874;37.516;2023-03-24T01:36:28;18.67;;;8.65;;
74259;SDS011;62630;55.874;37.516;2023-03-24T01:38:54;14.02;;;8.15;;
74259;SDS011;62630;55.874;37.516;2023-03-24T01:41:22;12.68;;;7.63;;
74259;SDS011;62630;55.874;37.516;2023-03-24T01:43:48;16.35;;;9.52;;
74259;SDS011;62630;55.874;37.516;2023-03-24T01:46:20;13.07;;;8.05;;
74259;SDS011;62630;55.874;37.516;2023-03-24T01:48:57;16.55;;;8.45;;
74259;SDS011;62630;55.874;37.516;2023-03-24T01:51:30;12.65;;;8.40;;
74259;SDS011;62630;55.874;37.516;2023-03-24T01:54:12;15.63;;;8.57;;
74259;SDS011;62630;55.874;37.516;2023-03-24T01:56:44;13.48;;;9.00;;
74259;SDS011;62630;55.874;37.516;2023-03-24T01:59:14;14.05;;;8.88;;
74259;SDS011;62630;55.874;37.516;2023-03-24T02:01:43;13.57;;;7.78;;
74259;SDS011;62630;55.874;37.516;2023-03-24T02:04:09;14.65;;;8.20;;
74259;SDS011;62630;55.874;37.516;2023-03-24T02:06:36;15.68;;;8.60;;
74259;SDS011;62630;55.874;37.516;2023-03-24T02:09:05;16.88;;;8.63;;
74259;SDS011;62630;55.874;37.516;2023-03-24T02:11:33;12.25;;;7.78;;
74259;SDS011;62630;55.874;37.516;2023-03-24T02:14:00;15.98;;;8.30;;
74259;SDS011;62630;55.874;37.516;2023-03-24T02:30:17;16.90;;;8.57;;
74259;SDS011;62630;55.874;37.516;2023-03-24T02:35:35;17.20;;;8.57;;
74259;SDS011;62630;55.874;37.516;2023-03-24T03:02:18;13.35;;;8.35;;
74259;SDS011;62630;55.874;37.516;2023-03-24T03:04:53;13.73;;;9.05;;
74259;SDS011;62630;55.874;37.516;2023-03-24T03:07:25;16.00;;;8.57;;
74259;SDS011;62630;55.874;37.516;2023-03-24T03:10:09;11.52;;;8.10;;
74259;SDS011;62630;55.874;37.516;2023-03-24T03:12:40;13.30;;;8.95;;
74259;SDS011;62630;55.874;37.516;2023-03-24T03:15:13;13.30;;;7.80;;
74259;SDS011;62630;55.874;37.516;2023-03-24T03:17:47;14.63;;;9.10;;
74259;SDS011;62630;55.874;37.516;2023-03-24T03:20:21;16.55;;;8.90;;
74259;SDS011;62630;55.874;37.516;2023-03-24T03:22:50;14.15;;;8.63;;
74259;SDS011;62630;55.874;37.516;2023-03-24T03:25:24;12.77;;;9.02;;
74259;SDS011;62630;55.874;37.516;2023-03-24T03:27:56;22.30;;;9.15;;
74259;SDS011;62630;55.874;37.516;2023-03-24T03:30:26;13.70;;;8.15;;
74259;SDS011;62630;55.874;37.516;2023-03-24T03:33:02;13.73;;;7.85;;
74259;SDS011;62630;55.874;37.516;2023-03-24T03:35:34;14.02;;;8.90;;
74259;SDS011;62630;55.874;37.516;2023-03-24T03:43:13;11.77;;;8.25;;
74259;SDS011;62630;55.874;37.516;2023-03-24T03:45:40;11.88;;;8.75;;
74259;SDS011;62630;55.874;37.516;2023-03-24T03:48:06;15.15;;;9.45;;
74259;SDS011;62630;55.874;37.516;2023-03-24T03:50:32;17.70;;;9.57;;
74259;SDS011;62630;55.874;37.516;2023-03-24T03:52:58;18.35;;;10.02;;
74259;SDS011;62630;55.874;37.516;2023-03-24T03:55:25;15.10;;;9.18;;
74259;SDS011;62630;55.874;37.516;2023-03-24T03:57:51;15.70;;;9.45;;
74259;SDS011;62630;55.874;37.516;2023-03-24T04:00:18;16.75;;;9.65;;
74259;SDS011;62630;55.874;37.516;2023-03-24T04:03:06;12.63;;;8.60;;
74259;SDS011;62630;55.874;37.516;2023-03-24T04:08:54;12.00;;;8.63;;
74259;SDS011;62630;55.874;37.516;2023-03-24T04:23:00;14.70;;;9.38;;
74259;SDS011;62630;55.874;37.516;2023-03-24T04:28:23;15.82;;;10.75;;
74259;SDS011;62630;55.874;37.516;2023-03-24T04:31:19;16.65;;;10.68;;
74259;SDS011;62630;55.874;37.516;2023-03-24T04:33:56;18.80;;;10.60;;
74259;SDS011;62630;55.874;37.516;2023-03-24T04:38:58;15.82;;;10.32;;
74259;SDS011;62630;55.874;37.516;2023-03-24T04:41:26;16.23;;;10.02;;
74259;SDS011;62630;55.874;37.516;2023-03-24T04:43:55;18.75;;;11.05;;
74259;SDS011;62630;55.874;37.516;2023-03-24T04:46:23;16.90;;;10.38;;
74259;SDS011;62630;55.874;37.516;2023-03-24T04:48:49;20.23;;;10.60;;
74259;SDS011;62630;55.874;37.516;2023-03-24T04:51:16;17.52;;;10.68;;
74259;SDS011;62630;55.874;37.516;2023-03-24T04:53:45;17.65;;;10.70;;
74259;SDS011;62630;55.874;37.516;2023-03-24T04:58:55;18.05;;;11.13;;
74259;SDS011;62630;55.874;37.516;2023-03-24T05:01:21;19.10;;;11.65;;
74259;SDS011;62630;55.874;37.516;2023-03-24T05:03:49;19.00;;;11.18;;
74259;SDS011;62630;55.874;37.516;2023-03-24T05:06:15;17.25;;;11.43;;
74259;SDS011;62630;55.874;37.516;2023-03-24T05:08:41;17.65;;;10.75;;
74259;SDS011;62630;55.874;37.516;2023-03-24T05:11:07;25.42;;;12.63;;
74259;SDS011;62630;55.874;37.516;2023-03-24T05:13:33;20.90;;;11.60;;
74259;SDS011;62630;55.874;37.516;2023-03-24T05:15:59;18.25;;;11.50;;
74259;SDS011;62630;55.874;37.516;2023-03-24T05:18:25;22.17;;;11.48;;
74259;SDS011;62630;55.874;37.516;2023-03-24T05:20:51;20.05;;;12.50;;
74259;SDS011;62630;55.874;37.516;2023-03-24T05:23:17;18.75;;;10.88;;
74259;SDS011;62630;55.874;37.516;2023-03-24T05:25:44;22.55;;;12.98;;
74259;SDS011;62630;55.874;37.516;2023-03-24T05:30:36;21.10;;;10.95;;
74259;SDS011;62630;55.874;37.516;2023-03-24T05:33:01;21.95;;;11.80;;
74259;SDS011;62630;55.874;37.516;2023-03-24T05:35:27;22.67;;;11.00;;
74259;SDS011;62630;55.874;37.516;2023-03-24T05:37:52;19.13;;;11.88;;
74259;SDS011;62630;55.874;37.516;2023-03-24T05:40:18;18.90;;;11.50;;
74259;SDS011;62630;55.874;37.516;2023-03-24T05:42:43;18.05;;;11.60;;
74259;SDS011;62630;55.874;37.516;2023-03-24T05:45:09;20.23;;;12.85;;
74259;SDS011;62630;55.874;37.516;2023-03-24T05:47:36;22.85;;;12.25;;
74259;SDS011;62630;55.874;37.516;2023-03-24T05:50:02;19.88;;;11.65;;
74259;SDS011;62630;55.874;37.516;2023-03-24T05:52:28;22.10;;;12.38;;
74259;SDS011;62630;55.874;37.516;2023-03-24T05:54:55;22.15;;;11.23;;
74259;SDS011;62630;55.874;37.516;2023-03-24T05:57:22;20.30;;;11.48;;
74259;SDS011;62630;55.874;37.516;2023-03-24T05:59:47;18.70;;;11.35;;
74259;SDS011;62630;55.874;37.516;2023-03-24T06:02:13;21.85;;;12.07;;
74259;SDS011;62630;55.874;37.516;2023-03-24T06:04:39;18.83;;;11.07;;
74259;SDS011;62630;55.874;37.516;2023-03-24T06:07:13;20.00;;;11.40;;
74259;SDS011;62630;55.874;37.516;2023-03-24T06:09:39;23.10;;;12.10;;
74259;SDS011;62630;55.874;37.516;2023-03-24T06:12:06;17.88;;;11.68;;
74259;SDS011;62630;55.874;37.516;2023-03-24T06:14:33;19.63;;;11.80;;
74259;SDS011;62630;55.874;37.516;2023-03-24T06:16:59;16.92;;;11.88;;
74259;SDS011;62630;55.874;37.516;2023-03-24T06:19:25;19.23;;;11.77;;
74259;SDS011;62630;55.874;37.516;2023-03-24T06:21:54;20.40;;;11.50;;
74259;SDS011;62630;55.874;37.516;2023-03-24T06:24:20;19.42;;;11.70;;
74259;SDS011;62630;55.874;37.516;2023-03-24T06:26:47;18.40;;;11.30;;
74259;SDS011;62630;55.874;37.516;2023-03-24T06:29:15;19.77;;;11.13;;
74259;SDS011;62630;55.874;37.516;2023-03-24T06:31:44;21.00;;;11.73;;
74259;SDS011;62630;55.874;37.516;2023-03-24T06:34:12;18.25;;;10.85;;
74259;SDS011;62630;55.874;37.516;2023-03-24T06:43:34;16.98;;;11.23;;
74259;SDS011;62630;55.874;37.516;2023-03-24T06:49:12;20.60;;;11.52;;
74259;SDS011;62630;55.874;37.516;2023-03-24T06:52:01;17.42;;;9.27;;
74259;SDS011;62630;55.874;37.516;2023-03-24T06:54:31;18.60;;;10.90;;
74259;SDS011;62630;55.874;37.516;2023-03-24T06:56:58;15.88;;;10.82;;
74259;SDS011;62630;55.874;37.516;2023-03-24T06:59:25;15.27;;;9.70;;
74259;SDS011;62630;55.874;37.516;2023-03-24T07:01:50;14.85;;;8.30;;
74259;SDS011;62630;55.874;37.516;2023-03-24T07:04:17;14.52;;;10.10;;
74259;SDS011;62630;55.874;37.516;2023-03-24T07:06:43;14.00;;;8.40;;
74259;SDS011;62630;55.874;37.516;2023-03-24T07:09:09;16.02;;;9.45;;
74259;SDS011;62630;55.874;37.516;2023-03-24T07:11:36;15.70;;;8.73;;
74259;SDS011;62630;55.874;37.516;2023-03-24T07:14:02;13.52;;;8.98;;
74259;SDS011;62630;55.874;37.516;2023-03-24T07:16:27;14.27;;;8.50;;
74259;SDS011;62630;55.874;37.516;2023-03-24T07:18:53;15.85;;;8.15;;
74259;SDS011;62630;55.874;37.516;2023-03-24T07:21:21;13.52;;;8.52;;
74259;SDS011;62630;55.874;37.516;2023-03-24T07:23:47;13.48;;;8.48;;
74259;SDS011;62630;55.874;37.516;2023-03-24T07:26:12;13.60;;;7.78;;
74259;SDS011;62630;55.874;37.516;2023-03-24T07:28:38;15.10;;;9.23;;
74259;SDS011;62630;55.874;37.516;2023-03-24T07:31:04;10.68;;;7.32;;
74259;SDS011;62630;55.874;37.516;2023-03-24T07:33:42;9.43;;;6.63;;
74259;SDS011;62630;55.874;37.516;2023-03-24T07:36:07;12.32;;;6.97;;
74259;SDS011;62630;55.874;37.516;2023-03-24T07:38:33;10.30;;;6.40;;
74259;SDS011;62630;55.874;37.516;2023-03-24T07:41:00;11.73;;;6.95;;
74259;SDS011;62630;55.874;37.516;2023-03-24T07:43:26;8.98;;;6.65;;
74259;SDS011;62630;55.874;37.516;2023-03-24T07:45:51;9.43;;;6.05;;
74259;SDS011;62630;55.874;37.516;2023-03-24T07:48:17;9.73;;;5.95;;
74259;SDS011;62630;55.874;37.516;2023-03-24T07:50:42;10.02;;;6.18;;
74259;SDS011;62630;55.874;37.516;2023-03-24T07:53:08;8.07;;;6.28;;
74259;SDS011;62630;55.874;37.516;2023-03-24T07:55:35;10.10;;;5.65;;
74259;SDS011;62630;55.874;37.516;2023-03-24T07:58:02;8.85;;;5.40;;
74259;SDS011;62630;55.874;37.516;2023-03-24T08:00:28;9.73;;;5.95;;
74259;SDS011;62630;55.874;37.516;2023-03-24T08:02:57;9.85;;;6.10;;
74259;SDS011;62630;55.874;37.516;2023-03-24T08:05:24;7.30;;;5.55;;
74259;SDS011;62630;55.874;37.516;2023-03-24T08:07:54;8.35;;;5.93;;
74259;SDS011;62630;55.874;37.516;2023-03-24T08:10:25;8.25;;;5.40;;
74259;SDS011;62630;55.874;37.516;2023-03-24T08:12:52;8.75;;;5.57;;
74259;SDS011;62630;55.874;37.516;2023-03-24T08:15:18;9.43;;;5.22;;
74259;SDS011;62630;55.874;37.516;2023-03-24T08:17:44;8.55;;;5.18;;
74259;SDS011;62630;55.874;37.516;2023-03-24T08:20:12;7.47;;;5.35;;
74259;SDS011;62630;55.874;37.516;2023-03-24T08:22:39;8.02;;;4.47;;
74259;SDS011;62630;55.874;37.516;2023-03-24T08:27:32;8.93;;;4.93;;
74259;SDS011;62630;55.874;37.516;2023-03-24T08:29:57;7.10;;;5.15;;
74259;SDS011;62630;55.874;37.516;2023-03-24T08:32:23;10.40;;;5.75;;
74259;SDS011;62630;55.874;37.516;2023-03-24T08:34:49;6.97;;;4.78;;
74259;SDS011;62630;55.874;37.516;2023-03-24T08:37:14;7.65;;;5.15;;
74259;SDS011;62630;55.874;37.516;2023-03-24T08:39:42;7.32;;;4.35;;
74259;SDS011;62630;55.874;37.516;2023-03-24T08:42:08;8.48;;;5.50;;
74259;SDS011;62630;55.874;37.516;2023-03-24T08:44:34;6.57;;;4.60;;
74259;SDS011;62630;55.874;37.516;2023-03-24T08:47:00;6.13;;;4.20;;
74259;SDS011;62630;55.874;37.516;2023-03-24T08:49:26;9.70;;;5.22;;
74259;SDS011;62630;55.874;37.516;2023-03-24T08:51:52;6.07;;;4.30;;
74259;SDS011;62630;55.874;37.516;2023-03-24T08:54:18;7.32;;;4.82;;
74259;SDS011;62630;55.874;37.516;2023-03-24T08:56:45;8.07;;;4.57;;
74259;SDS011;62630;55.874;37.516;2023-03-24T08:59:11;6.65;;;4.43;;
74259;SDS011;62630;55.874;37.516;2023-03-24T09:01:36;6.22;;;4.03;;
74259;SDS011;62630;55.874;37.516;2023-03-24T09:04:05;5.78;;;3.97;;
74259;SDS011;62630;55.874;37.516;2023-03-24T09:06:30;6.75;;;4.45;;
74259;SDS011;62630;55.874;37.516;2023-03-24T09:08:56;5.80;;;4.35;;
74259;SDS011;62630;55.874;37.516;2023-03-24T09:11:22;6.50;;;4.00;;
74259;SDS011;62630;55.874;37.516;2023-03-24T09:13:48;7.18;;;4.78;;
74259;SDS011;62630;55.874;37.516;2023-03-24T09:16:15;6.82;;;3.90;;
74259;SDS011;62630;55.874;37.516;2023-03-24T09:18:41;6.30;;;4.30;;
74259;SDS011;62630;55.874;37.516;2023-03-24T09:21:07;7.72;;;3.63;;
74259;SDS011;62630;55.874;37.516;2023-03-24T09:23:33;5.45;;;3.65;;
74259;SDS011;62630;55.874;37.516;2023-03-24T09:26:00;6.72;;;4.38;;
74259;SDS011;62630;55.874;37.516;2023-03-24T09:28:26;5.07;;;3.58;;
74259;SDS011;62630;55.874;37.516;2023-03-24T09:30:55;5.50;;;3.70;;
74259;SDS011;62630;55.874;37.516;2023-03-24T09:33:22;5.75;;;3.80;;
74259;SDS011;62630;55.874;37.516;2023-03-24T09:35:55;7.93;;;4.00;;
74259;SDS011;62630;55.874;37.516;2023-03-24T09:38:22;5.05;;;3.78;;
74259;SDS011;62630;55.874;37.516;2023-03-24T09:40:48;6.10;;;3.80;;
74259;SDS011;62630;55.874;37.516;2023-03-24T09:46:03;6.88;;;4.05;;
74259;SDS011;62630;55.874;37.516;2023-03-24T09:48:43;5.10;;;3.85;;
74259;SDS011;62630;55.874;37.516;2023-03-24T09:51:18;4.78;;;3.50;;
74259;SDS011;62630;55.874;37.516;2023-03-24T09:54:27;5.68;;;3.70;;
74259;SDS011;62630;55.874;37.516;2023-03-24T09:56:35;4.88;;;3.30;;
74259;SDS011;62630;55.874;37.516;2023-03-24T09:59:04;6.38;;;3.65;;
74259;SDS011;62630;55.874;37.516;2023-03-24T10:01:32;6.10;;;3.47;;
74259;SDS011;62630;55.874;37.516;2023-03-24T10:04:00;5.88;;;3.63;;
74259;SDS011;62630;55.874;37.516;2023-03-24T10:06:30;5.70;;;3.97;;
74259;SDS011;62630;55.874;37.516;2023-03-24T10:15:16;7.97;;;4.22;;
74259;SDS011;62630;55.874;37.516;2023-03-24T10:25:50;5.53;;;3.55;;
74259;SDS011;62630;55.874;37.516;2023-03-24T10:28:27;5.03;;;3.40;;
74259;SDS011;62630;55.874;37.516;2023-03-24T10:31:04;8.32;;;3.97;;
74259;SDS011;62630;55.874;37.516;2023-03-24T10:33:42;5.15;;;3.40;;
74259;SDS011;62630;55.874;37.516;2023-03-24T10:36:12;4.28;;;3.28;;
74259;SDS011;62630;55.874;37.516;2023-03-24T10:38:44;10.57;;;4.07;;
74259;SDS011;62630;55.874;37.516;2023-03-24T10:41:17;6.35;;;4.05;;
74259;SDS011;62630;55.874;37.516;2023-03-24T10:43:45;3.97;;;3.00;;
74259;SDS011;62630;55.874;37.516;2023-03-24T10:46:16;7.70;;;4.07;;
74259;SDS011;62630;55.874;37.516;2023-03-24T10:48:46;5.53;;;3.03;;
74259;SDS011;62630;55.874;37.516;2023-03-24T10:51:18;4.45;;;3.08;;
74259;SDS011;62630;55.874;37.516;2023-03-24T10:54:08;5.80;;;3.67;;
74259;SDS011;62630;55.874;37.516;2023-03-24T10:56:40;5.88;;;3.47;;
74259;SDS011;62630;55.874;37.516;2023-03-24T11:07:21;5.20;;;3.10;;
74259;SDS011;62630;55.874;37.516;2023-03-24T11:09:56;5.20;;;3.33;;
74259;SDS011;62630;55.874;37.516;2023-03-24T11:15:20;7.75;;;2.85;;
74259;SDS011;62630;55.874;37.516;2023-03-24T11:17:58;4.53;;;2.47;;
74259;SDS011;62630;55.874;37.516;2023-03-24T11:20:29;4.10;;;2.65;;
74259;SDS011;62630;55.874;37.516;2023-03-24T11:25:38;4.88;;;2.75;;
74259;SDS011;62630;55.874;37.516;2023-03-24T11:28:12;4.03;;;2.67;;
74259;SDS011;62630;55.874;37.516;2023-03-24T11:30:45;4.00;;;2.53;;
74259;SDS011;62630;55.874;37.516;2023-03-24T11:33:15;4.40;;;2.70;;
74259;SDS011;62630;55.874;37.516;2023-03-24T11:35:44;4.43;;;3.00;;
74259;SDS011;62630;55.874;37.516;2023-03-24T11:38:14;3.40;;;2.40;;
74259;SDS011;62630;55.874;37.516;2023-03-24T11:40:51;3.90;;;2.90;;
74259;SDS011;62630;55.874;37.516;2023-03-24T11:43:25;3.38;;;2.45;;
74259;SDS011;62630;55.874;37.516;2023-03-24T11:48:34;3.35;;;2.40;;
74259;SDS011;62630;55.874;37.516;2023-03-24T11:51:06;3.92;;;2.60;;
74259;SDS011;62630;55.874;37.516;2023-03-24T11:53:41;4.38;;;2.30;;
74259;SDS011;62630;55.874;37.516;2023-03-24T11:56:16;3.70;;;2.38;;
74259;SDS011;62630;55.874;37.516;2023-03-24T12:04:55;4.13;;;2.10;;
74259;SDS011;62630;55.874;37.516;2023-03-24T12:07:48;5.03;;;2.60;;
74259;SDS011;62630;55.874;37.516;2023-03-24T12:13:15;3.85;;;2.05;;
74259;SDS011;62630;55.874;37.516;2023-03-24T12:15:51;6.82;;;2.50;;
74259;SDS011;62630;55.874;37.516;2023-03-24T12:21:11;4.38;;;2.33;;
74259;SDS011;62630;55.874;37.516;2023-03-24T12:23:55;2.35;;;1.90;;
74259;SDS011;62630;55.874;37.516;2023-03-24T12:26:25;3.45;;;1.90;;
74259;SDS011;62630;55.874;37.516;2023-03-24T12:39:28;3.45;;;2.08;;
74259;SDS011;62630;55.874;37.516;2023-03-24T12:53:32;3.67;;;2.17;;
74259;SDS011;62630;55.874;37.516;2023-03-24T13:13:28;3.45;;;2.00;;
74259;SDS011;62630;55.874;37.516;2023-03-24T13:15:33;3.55;;;2.38;;
74259;SDS011;62630;55.874;37.516;2023-03-24T13:28:33;3.75;;;2.20;;
74259;SDS011;62630;55.874;37.516;2023-03-24T13:31:05;2.00;;;1.60;;
74259;SDS011;62630;55.874;37.516;2023-03-24T13:33:34;3.10;;;1.70;;
74259;SDS011;62630;55.874;37.516;2023-03-24T13:38:36;2.83;;;1.30;;
74259;SDS011;62630;55.874;37.516;2023-03-24T13:41:10;2.63;;;1.50;;
74259;SDS011;62630;55.874;37.516;2023-03-24T13:43:46;1.35;;;1.02;;
74259;SDS011;62630;55.874;37.516;2023-03-24T13:46:23;2.45;;;1.27;;
74259;SDS011;62630;55.874;37.516;2023-03-24T13:48:50;5.60;;;1.48;;
74259;SDS011;62630;55.874;37.516;2023-03-24T13:51:32;1.95;;;1.30;;
74259;SDS011;62630;55.874;37.516;2023-03-24T13:54:03;2.22;;;1.33;;
74259;SDS011;62630;55.874;37.516;2023-03-24T13:56:53;2.67;;;1.35;;
74259;SDS011;62630;55.874;37.516;2023-03-24T14:04:44;1.83;;;1.23;;
74259;SDS011;62630;55.874;37.516;2023-03-24T14:07:30;2.13;;;1.35;;
74259;SDS011;62630;55.874;37.516;2023-03-24T14:10:00;2.88;;;1.30;;
74259;SDS011;62630;55.874;37.516;2023-03-24T14:12:53;2.90;;;1.08;;
74259;SDS011;62630;55.874;37.516;2023-03-24T14:17:52;2.65;;;1.20;;
74259;SDS011;62630;55.874;37.516;2023-03-24T14:20:23;2.63;;;1.08;;
74259;SDS011;62630;55.874;37.516;2023-03-24T14:23:01;1.83;;;1.20;;
74259;SDS011;62630;55.874;37.516;2023-03-24T14:25:28;5.40;;;1.40;;
74259;SDS011;62630;55.874;37.516;2023-03-24T14:28:06;3.47;;;1.40;;
74259;SDS011;62630;55.874;37.516;2023-03-24T14:30:53;3.22;;;1.08;;
74259;SDS011;62630;55.874;37.516;2023-03-24T14:33:26;2.60;;;1.10;;
74259;SDS011;62630;55.874;37.516;2023-03-24T14:36:02;4.05;;;1.20;;
74259;SDS011;62630;55.874;37.516;2023-03-24T14:38:34;3.13;;;1.02;;
74259;SDS011;62630;55.874;37.516;2023-03-24T14:41:05;1.58;;;1.10;;
74259;SDS011;62630;55.874;37.516;2023-03-24T14:49:31;2.28;;;1.08;;
74259;SDS011;62630;55.874;37.516;2023-03-24T14:51:40;2.95;;;1.23;;
74259;SDS011;62630;55.874;37.516;2023-03-24T14:57:21;2.38;;;1.10;;
74259;SDS011;62630;55.874;37.516;2023-03-24T15:02:39;3.65;;;1.10;;
74259;SDS011;62630;55.874;37.516;2023-03-24T15:07:38;3.63;;;1.38;;
74259;SDS011;62630;55.874;37.516;2023-03-24T15:10:04;2.75;;;1.05;;
74259;SDS011;62630;55.874;37.516;2023-03-24T15:12:30;3.05;;;1.30;;
74259;SDS011;62630;55.874;37.516;2023-03-24T15:14:57;3.40;;;1.40;;
74259;SDS011;62630;55.874;37.516;2023-03-24T15:17:23;3.88;;;1.50;;
74259;SDS011;62630;55.874;37.516;2023-03-24T15:19:50;3.55;;;1.23;;
74259;SDS011;62630;55.874;37.516;2023-03-24T15:22:19;2.63;;;1.50;;
74259;SDS011;62630;55.874;37.516;2023-03-24T15:24:46;3.17;;;1.27;;
74259;SDS011;62630;55.874;37.516;2023-03-24T15:27:23;1.88;;;1.20;;
74259;SDS011;62630;55.874;37.516;2023-03-24T15:29:54;6.15;;;2.75;;
74259;SDS011;62630;55.874;37.516;2023-03-24T15:32:23;5.40;;;1.15;;
74259;SDS011;62630;55.874;37.516;2023-03-24T15:34:55;2.83;;;0.80;;
74259;SDS011;62630;55.874;37.516;2023-03-24T15:37:24;3.05;;;1.63;;
74259;SDS011;62630;55.874;37.516;2023-03-24T15:39:56;6.38;;;2.25;;
74259;SDS011;62630;55.874;37.516;2023-03-24T15:42:23;6.60;;;3.25;;
74259;SDS011;62630;55.874;37.516;2023-03-24T15:44:49;3.25;;;1.15;;
74259;SDS011;62630;55.874;37.516;2023-03-24T15:47:23;3.00;;;1.95;;
74259;SDS011;62630;55.874;37.516;2023-03-24T15:49:57;2.78;;;1.40;;
74259;SDS011;62630;55.874;37.516;2023-03-24T15:52:31;2.45;;;1.10;;
74259;SDS011;62630;55.874;37.516;2023-03-24T15:57:40;3.67;;;1.45;;
74259;SDS011;62630;55.874;37.516;2023-03-24T16:02:46;4.55;;;1.30;;
74259;SDS011;62630;55.874;37.516;2023-03-24T16:11:06;2.03;;;0.90;;
74259;SDS011;62630;55.874;37.516;2023-03-24T16:13:36;2.90;;;1.10;;
74259;SDS011;62630;55.874;37.516;2023-03-24T16:18:31;2.92;;;1.08;;
74259;SDS011;62630;55.874;37.516;2023-03-24T16:20:59;2.63;;;1.02;;
74259;SDS011;62630;55.874;37.516;2023-03-24T16:23:26;3.78;;;1.10;;
74259;SDS011;62630;55.874;37.516;2023-03-24T16:25:54;5.57;;;1.20;;
74259;SDS011;62630;55.874;37.516;2023-03-24T16:28:20;2.60;;;1.00;;
74259;SDS011;62630;55.874;37.516;2023-03-24T16:33:21;3.08;;;1.25;;
74259;SDS011;62630;55.874;37.516;2023-03-24T16:35:47;1.15;;;0.80;;
74259;SDS011;62630;55.874;37.516;2023-03-24T16:38:19;4.43;;;1.52;;
74259;SDS011;62630;55.874;37.516;2023-03-24T16:40:57;3.83;;;1.40;;
74259;SDS011;62630;55.874;37.516;2023-03-24T16:43:22;4.05;;;2.10;;
74259;SDS011;62630;55.874;37.516;2023-03-24T16:45:49;2.25;;;1.30;;
74259;SDS011;62630;55.874;37.516;2023-03-24T16:48:16;2.28;;;1.23;;
74259;SDS011;62630;55.874;37.516;2023-03-24T16:50:48;2.08;;;1.20;;
74259;SDS011;62630;55.874;37.516;2023-03-24T16:55:43;5.78;;;1.60;;
74259;SDS011;62630;55.874;37.516;2023-03-24T16:58:09;3.75;;;1.33;;
74259;SDS011;62630;55.874;37.516;2023-03-24T17:00:37;6.72;;;1.05;;
74259;SDS011;62630;55.874;37.516;2023-03-24T17:03:03;1.67;;;1.00;;
74259;SDS011;62630;55.874;37.516;2023-03-24T17:05:43;2.97;;;1.45;;
74259;SDS011;62630;55.874;37.516;2023-03-24T17:08:13;2.58;;;1.25;;
74259;SDS011;62630;55.874;37.516;2023-03-24T17:10:40;3.38;;;1.13;;
74259;SDS011;62630;55.874;37.516;2023-03-24T17:13:09;2.97;;;1.02;;
74259;SDS011;62630;55.874;37.516;2023-03-24T17:15:41;2.55;;;1.02;;
74259;SDS011;62630;55.874;37.516;2023-03-24T17:18:07;2.58;;;1.08;;
74259;SDS011;62630;55.874;37.516;2023-03-24T17:20:33;2.33;;;1.00;;
74259;SDS011;62630;55.874;37.516;2023-03-24T17:22:59;2.58;;;1.83;;
74259;SDS011;62630;55.874;37.516;2023-03-24T17:25:24;2.78;;;1.27;;
74259;SDS011;62630;55.874;37.516;2023-03-24T17:27:53;2.58;;;1.00;;
74259;SDS011;62630;55.874;37.516;2023-03-24T17:30:20;11.45;;;1.50;;
74259;SDS011;62630;55.874;37.516;2023-03-24T17:32:47;2.60;;;1.13;;
74259;SDS011;62630;55.874;37.516;2023-03-24T17:35:14;4.70;;;1.08;;
74259;SDS011;62630;55.874;37.516;2023-03-24T17:37:42;1.83;;;1.20;;
74259;SDS011;62630;55.874;37.516;2023-03-24T17:40:11;3.63;;;1.50;;
74259;SDS011;62630;55.874;37.516;2023-03-24T17:42:39;2.85;;;1.58;;
74259;SDS011;62630;55.874;37.516;2023-03-24T17:45:06;2.67;;;1.67;;
74259;SDS011;62630;55.874;37.516;2023-03-24T17:47:34;5.00;;;2.25;;
74259;SDS011;62630;55.874;37.516;2023-03-24T17:50:00;5.03;;;1.60;;
74259;SDS011;62630;55.874;37.516;2023-03-24T17:52:26;3.25;;;1.20;;
74259;SDS011;62630;55.874;37.516;2023-03-24T17:54:51;3.25;;;1.17;;
74259;SDS011;62630;55.874;37.516;2023-03-24T17:57:17;5.32;;;1.25;;
74259;SDS011;62630;55.874;37.516;2023-03-24T17:59:43;3.75;;;1.10;;
74259;SDS011;62630;55.874;37.516;2023-03-24T18:02:09;2.25;;;0.90;;
74259;SDS011;62630;55.874;37.516;2023-03-24T18:04:36;3.05;;;0.98;;
74259;SDS011;62630;55.874;37.516;2023-03-24T18:07:02;2.35;;;1.17;;
74259;SDS011;62630;55.874;37.516;2023-03-24T18:09:33;3.28;;;1.40;;
74259;SDS011;62630;55.874;37.516;2023-03-24T18:11:59;1.92;;;1.05;;
74259;SDS011;62630;55.874;37.516;2023-03-24T18:14:25;4.30;;;1.38;;
74259;SDS011;62630;55.874;37.516;2023-03-24T18:16:50;3.72;;;1.67;;
74259;SDS011;62630;55.874;37.516;2023-03-24T18:19:16;1.92;;;1.35;;
74259;SDS011;62630;55.874;37.516;2023-03-24T18:21:44;4.07;;;1.45;;